sensor_id;sensor_type;location;lat;lon;timestamp;pressure;altitude;pressure_sealevel;temperature;humidity
34674;BME280;20879;55.668;37.858;2023-04-08T00:01:43;100925.06;;;2.17;53.59
34674;BME280;20879;55.668;37.858;2023-04-08T00:04:12;100921.66;;;2.18;53.56
34674;BME280;20879;55.668;37.858;2023-04-08T00:06:42;100923.25;;;2.14;54.03
34674;BME280;20879;55.668;37.858;2023-04-08T00:09:11;100913.44;;;2.02;53.69
34674;BME280;20879;55.668;37.858;2023-04-08T00:11:40;100916.06;;;2.04;53.77
34674;BME280;20879;55.668;37.858;2023-04-08T00:14:23;100922.06;;;2.06;54.18
34674;BME280;20879;55.668;37.858;2023-04-08T00:16:52;100922.81;;;2.03;54.15
34674;BME280;20879;55.668;37.858;2023-04-08T00:19:22;100920.03;;;1.97;54.26
34674;BME280;20879;55.668;37.858;2023-04-08T00:21:51;100909.66;;;1.92;54.55
34674;BME280;20879;55.668;37.858;2023-04-08T00:24:23;100920.84;;;1.96;54.32
34674;BME280;20879;55.668;37.858;2023-04-08T00:26:52;100919.97;;;1.96;54.03
34674;BME280;20879;55.668;37.858;2023-04-08T00:29:24;100927.94;;;2.03;54.56
34674;BME280;20879;55.668;37.858;2023-04-08T00:31:58;100923.72;;;2.04;54.16
34674;BME280;20879;55.668;37.858;2023-04-08T00:34:27;100926.09;;;1.99;54.07
34674;BME280;20879;55.668;37.858;2023-04-08T00:36:58;100930.94;;;1.93;54.40
34674;BME280;20879;55.668;37.858;2023-04-08T00:39:27;100924.00;;;1.89;55.07
34674;BME280;20879;55.668;37.858;2023-04-08T00:41:56;100919.63;;;1.86;55.37
34674;BME280;20879;55.668;37.858;2023-04-08T00:44:38;100924.72;;;1.86;55.19
34674;BME280;20879;55.668;37.858;2023-04-08T00:47:11;100926.41;;;1.86;55.11
34674;BME280;20879;55.668;37.858;2023-04-08T00:49:40;100922.53;;;1.96;54.65
34674;BME280;20879;55.668;37.858;2023-04-08T00:52:10;100919.69;;;1.88;54.53
34674;BME280;20879;55.668;37.858;2023-04-08T00:54:40;100934.22;;;1.89;54.90
34674;BME280;20879;55.668;37.858;2023-04-08T00:57:10;100918.50;;;1.80;55.37
34674;BME280;20879;55.668;37.858;2023-04-08T00:59:46;100921.69;;;1.74;55.36
34674;BME280;20879;55.668;37.858;2023-04-08T01:02:20;100921.50;;;1.69;55.80
34674;BME280;20879;55.668;37.858;2023-04-08T01:04:56;100929.91;;;1.67;55.57
34674;BME280;20879;55.668;37.858;2023-04-08T01:07:31;100913.03;;;1.49;55.85
34674;BME280;20879;55.668;37.858;2023-04-08T01:10:04;100926.25;;;1.60;55.76
34674;BME280;20879;55.668;37.858;2023-04-08T01:12:39;100932.81;;;1.55;56.26
34674;BME280;20879;55.668;37.858;2023-04-08T01:15:12;100918.06;;;1.48;56.13
34674;BME280;20879;55.668;37.858;2023-04-08T01:17:42;100932.47;;;1.46;56.27
34674;BME280;20879;55.668;37.858;2023-04-08T01:20:18;100925.88;;;1.51;56.23
34674;BME280;20879;55.668;37.858;2023-04-08T01:23:00;100918.63;;;1.40;56.70
34674;BME280;20879;55.668;37.858;2023-04-08T01:25:32;100930.34;;;1.35;56.87
34674;BME280;20879;55.668;37.858;2023-04-08T01:28:06;100921.59;;;1.30;57.16
34674;BME280;20879;55.668;37.858;2023-04-08T01:30:44;100929.25;;;1.30;56.67
34674;BME280;20879;55.668;37.858;2023-04-08T01:33:15;100921.03;;;1.37;56.57
34674;BME280;20879;55.668;37.858;2023-04-08T01:35:45;100908.47;;;1.21;56.70
34674;BME280;20879;55.668;37.858;2023-04-08T01:38:21;100925.84;;;1.30;56.91
34674;BME280;20879;55.668;37.858;2023-04-08T01:40:52;100931.75;;;1.29;56.78
34674;BME280;20879;55.668;37.858;2023-04-08T01:43:25;100927.78;;;1.35;56.82
34674;BME280;20879;55.668;37.858;2023-04-08T01:45:58;100926.09;;;1.36;56.92
34674;BME280;20879;55.668;37.858;2023-04-08T01:48:35;100932.28;;;1.21;57.28
34674;BME280;20879;55.668;37.858;2023-04-08T01:51:05;100905.28;;;1.06;57.66
34674;BME280;20879;55.668;37.858;2023-04-08T01:53:35;100930.75;;;1.25;57.04
34674;BME280;20879;55.668;37.858;2023-04-08T01:56:11;100931.56;;;1.24;57.85
34674;BME280;20879;55.668;37.858;2023-04-08T01:58:50;100934.72;;;1.18;57.76
34674;BME280;20879;55.668;37.858;2023-04-08T02:01:22;100941.38;;;1.15;57.59
34674;BME280;20879;55.668;37.858;2023-04-08T02:03:54;100934.28;;;1.08;58.46
34674;BME280;20879;55.668;37.858;2023-04-08T02:06:27;100942.84;;;1.10;58.24
34674;BME280;20879;55.668;37.858;2023-04-08T02:09:02;100937.63;;;1.07;58.60
34674;BME280;20879;55.668;37.858;2023-04-08T02:11:31;100933.47;;;1.09;58.09
34674;BME280;20879;55.668;37.858;2023-04-08T02:14:02;100929.16;;;1.08;58.33
34674;BME280;20879;55.668;37.858;2023-04-08T02:16:38;100936.63;;;1.03;58.98
34674;BME280;20879;55.668;37.858;2023-04-08T02:19:17;100939.97;;;1.02;58.59
34674;BME280;20879;55.668;37.858;2023-04-08T02:21:51;100936.88;;;1.09;58.74
34674;BME280;20879;55.668;37.858;2023-04-08T02:24:23;100924.47;;;0.97;58.98
34674;BME280;20879;55.668;37.858;2023-04-08T02:27:02;100937.97;;;0.95;59.02
34674;BME280;20879;55.668;37.858;2023-04-08T02:29:45;100929.59;;;0.97;59.08
34674;BME280;20879;55.668;37.858;2023-04-08T02:32:27;100932.66;;;0.90;59.54
34674;BME280;20879;55.668;37.858;2023-04-08T02:34:58;100938.56;;;0.89;59.87
34674;BME280;20879;55.668;37.858;2023-04-08T02:37:36;100932.53;;;0.87;59.65
34674;BME280;20879;55.668;37.858;2023-04-08T02:40:27;100941.13;;;0.89;59.93
34674;BME280;20879;55.668;37.858;2023-04-08T02:42:58;100940.31;;;0.90;59.74
34674;BME280;20879;55.668;37.858;2023-04-08T02:45:31;100948.63;;;0.86;59.97
34674;BME280;20879;55.668;37.858;2023-04-08T02:48:01;100947.03;;;0.88;59.84
34674;BME280;20879;55.668;37.858;2023-04-08T02:50:32;100955.50;;;0.87;60.30
34674;BME280;20879;55.668;37.858;2023-04-08T02:53:02;100950.41;;;0.87;60.61
34674;BME280;20879;55.668;37.858;2023-04-08T02:55:33;100954.75;;;0.90;60.02
34674;BME280;20879;55.668;37.858;2023-04-08T02:58:02;100952.16;;;0.88;60.45
34674;BME280;20879;55.668;37.858;2023-04-08T03:00:33;100941.66;;;0.82;59.85
34674;BME280;20879;55.668;37.858;2023-04-08T03:03:05;100952.28;;;0.91;59.94
34674;BME280;20879;55.668;37.858;2023-04-08T03:05:34;100954.16;;;0.95;59.98
34674;BME280;20879;55.668;37.858;2023-04-08T03:08:09;100948.38;;;0.99;60.19
34674;BME280;20879;55.668;37.858;2023-04-08T03:10:38;100954.56;;;1.04;59.79
34674;BME280;20879;55.668;37.858;2023-04-08T03:13:08;100955.47;;;1.07;59.92
34674;BME280;20879;55.668;37.858;2023-04-08T03:15:39;100951.75;;;0.98;60.42
34674;BME280;20879;55.668;37.858;2023-04-08T03:18:13;100953.75;;;1.06;60.11
34674;BME280;20879;55.668;37.858;2023-04-08T03:20:43;100959.78;;;1.08;60.25
34674;BME280;20879;55.668;37.858;2023-04-08T03:23:18;100960.03;;;1.14;59.82
34674;BME280;20879;55.668;37.858;2023-04-08T03:25:47;100958.44;;;1.16;60.02
34674;BME280;20879;55.668;37.858;2023-04-08T03:28:33;100960.16;;;1.17;59.95
34674;BME280;20879;55.668;37.858;2023-04-08T03:31:05;100961.19;;;1.20;60.03
34674;BME280;20879;55.668;37.858;2023-04-08T03:33:34;100957.06;;;1.24;60.42
34674;BME280;20879;55.668;37.858;2023-04-08T03:36:06;100962.19;;;1.24;60.36
34674;BME280;20879;55.668;37.858;2023-04-08T03:38:35;100961.56;;;1.30;60.02
34674;BME280;20879;55.668;37.858;2023-04-08T03:41:05;100962.38;;;1.29;59.78
34674;BME280;20879;55.668;37.858;2023-04-08T03:43:34;100962.72;;;1.36;59.36
34674;BME280;20879;55.668;37.858;2023-04-08T03:46:11;100966.13;;;1.37;59.61
34674;BME280;20879;55.668;37.858;2023-04-08T03:48:40;100966.06;;;1.35;59.87
34674;BME280;20879;55.668;37.858;2023-04-08T03:51:09;100959.34;;;1.37;59.61
34674;BME280;20879;55.668;37.858;2023-04-08T03:53:39;100950.38;;;1.26;59.25
34674;BME280;20879;55.668;37.858;2023-04-08T03:56:08;100968.44;;;1.31;60.04
34674;BME280;20879;55.668;37.858;2023-04-08T03:58:37;100974.88;;;1.42;59.80
34674;BME280;20879;55.668;37.858;2023-04-08T04:01:06;100969.66;;;1.40;59.55
34674;BME280;20879;55.668;37.858;2023-04-08T04:03:38;100962.09;;;1.42;59.57
34674;BME280;20879;55.668;37.858;2023-04-08T04:06:08;100968.69;;;1.37;60.14
34674;BME280;20879;55.668;37.858;2023-04-08T04:08:37;100975.06;;;1.47;59.75
34674;BME280;20879;55.668;37.858;2023-04-08T04:11:09;100976.03;;;1.50;59.90
34674;BME280;20879;55.668;37.858;2023-04-08T04:13:38;100942.84;;;1.29;59.84
34674;BME280;20879;55.668;37.858;2023-04-08T04:16:19;100967.84;;;1.57;59.62
34674;BME280;20879;55.668;37.858;2023-04-08T04:18:51;100975.31;;;1.74;59.28
34674;BME280;20879;55.668;37.858;2023-04-08T04:21:20;100965.78;;;1.91;59.09
34674;BME280;20879;55.668;37.858;2023-04-08T04:23:55;100980.78;;;2.04;58.67
34674;BME280;20879;55.668;37.858;2023-04-08T04:26:24;100972.31;;;2.05;58.23
34674;BME280;20879;55.668;37.858;2023-04-08T04:28:53;100977.53;;;2.08;58.39
34674;BME280;20879;55.668;37.858;2023-04-08T04:31:23;100979.59;;;2.17;58.26
34674;BME280;20879;55.668;37.858;2023-04-08T04:34:01;100977.56;;;2.31;57.86
34674;BME280;20879;55.668;37.858;2023-04-08T04:36:32;100988.97;;;2.39;57.72
34674;BME280;20879;55.668;37.858;2023-04-08T04:39:01;100974.53;;;2.41;57.81
34674;BME280;20879;55.668;37.858;2023-04-08T04:41:30;100977.41;;;2.49;57.35
34674;BME280;20879;55.668;37.858;2023-04-08T04:44:01;100977.19;;;2.44;57.42
34674;BME280;20879;55.668;37.858;2023-04-08T04:46:30;100982.47;;;2.48;57.53
34674;BME280;20879;55.668;37.858;2023-04-08T04:49:02;100982.75;;;2.55;57.30
34674;BME280;20879;55.668;37.858;2023-04-08T04:51:31;100976.16;;;2.62;57.02
34674;BME280;20879;55.668;37.858;2023-04-08T04:54:00;100973.00;;;2.69;56.67
34674;BME280;20879;55.668;37.858;2023-04-08T04:56:30;100981.91;;;2.79;56.30
34674;BME280;20879;55.668;37.858;2023-04-08T04:58:59;100983.06;;;2.87;56.32
34674;BME280;20879;55.668;37.858;2023-04-08T05:01:28;100981.00;;;3.01;56.08
34674;BME280;20879;55.668;37.858;2023-04-08T05:03:58;100989.63;;;3.03;56.26
34674;BME280;20879;55.668;37.858;2023-04-08T05:06:34;100987.53;;;2.93;56.10
34674;BME280;20879;55.668;37.858;2023-04-08T05:09:03;100988.19;;;2.87;56.46
34674;BME280;20879;55.668;37.858;2023-04-08T05:11:32;100990.75;;;2.87;56.64
34674;BME280;20879;55.668;37.858;2023-04-08T05:14:02;100988.94;;;2.85;56.51
34674;BME280;20879;55.668;37.858;2023-04-08T05:16:31;100991.44;;;2.83;56.82
34674;BME280;20879;55.668;37.858;2023-04-08T05:19:01;100989.91;;;2.88;56.72
34674;BME280;20879;55.668;37.858;2023-04-08T05:21:45;100995.69;;;2.83;56.71
34674;BME280;20879;55.668;37.858;2023-04-08T05:24:14;100999.16;;;2.85;57.12
34674;BME280;20879;55.668;37.858;2023-04-08T05:26:48;101010.44;;;2.90;57.08
34674;BME280;20879;55.668;37.858;2023-04-08T05:29:18;100994.81;;;2.82;57.13
34674;BME280;20879;55.668;37.858;2023-04-08T05:31:47;101003.91;;;2.98;56.73
34674;BME280;20879;55.668;37.858;2023-04-08T05:34:22;101007.88;;;2.90;56.98
34674;BME280;20879;55.668;37.858;2023-04-08T05:36:59;101006.91;;;3.10;57.07
34674;BME280;20879;55.668;37.858;2023-04-08T05:39:28;101014.13;;;3.21;56.98
34674;BME280;20879;55.668;37.858;2023-04-08T05:42:03;101018.19;;;3.40;56.32
34674;BME280;20879;55.668;37.858;2023-04-08T05:44:32;100965.97;;;3.10;56.35
34674;BME280;20879;55.668;37.858;2023-04-08T05:47:11;101008.56;;;3.32;55.63
34674;BME280;20879;55.668;37.858;2023-04-08T05:49:46;101007.63;;;3.30;55.88
34674;BME280;20879;55.668;37.858;2023-04-08T05:52:19;101017.53;;;3.45;55.86
34674;BME280;20879;55.668;37.858;2023-04-08T05:54:53;101018.66;;;3.54;56.08
34674;BME280;20879;55.668;37.858;2023-04-08T05:57:24;100995.56;;;3.52;56.10
34674;BME280;20879;55.668;37.858;2023-04-08T05:59:55;101019.44;;;3.77;55.83
34674;BME280;20879;55.668;37.858;2023-04-08T06:02:24;101010.38;;;3.87;55.16
34674;BME280;20879;55.668;37.858;2023-04-08T06:04:54;101009.34;;;3.81;54.96
34674;BME280;20879;55.668;37.858;2023-04-08T06:07:25;101000.13;;;3.87;55.27
34674;BME280;20879;55.668;37.858;2023-04-08T06:12:39;101006.72;;;4.06;54.69
34674;BME280;20879;55.668;37.858;2023-04-08T06:15:08;101005.16;;;4.11;54.70
34674;BME280;20879;55.668;37.858;2023-04-08T06:17:38;101002.59;;;4.11;54.74
34674;BME280;20879;55.668;37.858;2023-04-08T06:20:13;101005.50;;;4.22;54.25
34674;BME280;20879;55.668;37.858;2023-04-08T06:22:44;101006.53;;;4.27;54.27
34674;BME280;20879;55.668;37.858;2023-04-08T06:25:13;101009.09;;;4.27;54.24
34674;BME280;20879;55.668;37.858;2023-04-08T06:27:43;101003.31;;;4.34;54.23
34674;BME280;20879;55.668;37.858;2023-04-08T06:30:14;101005.22;;;4.40;54.22
34674;BME280;20879;55.668;37.858;2023-04-08T06:32:44;100995.63;;;4.34;53.85
34674;BME280;20879;55.668;37.858;2023-04-08T06:35:14;101008.22;;;4.55;53.51
34674;BME280;20879;55.668;37.858;2023-04-08T06:37:45;101011.81;;;4.60;53.12
34674;BME280;20879;55.668;37.858;2023-04-08T06:40:15;101012.13;;;4.71;53.52
34674;BME280;20879;55.668;37.858;2023-04-08T06:42:44;101009.88;;;4.82;53.13
34674;BME280;20879;55.668;37.858;2023-04-08T06:45:33;101008.34;;;4.88;53.12
34674;BME280;20879;55.668;37.858;2023-04-08T06:48:03;101013.59;;;4.93;52.58
34674;BME280;20879;55.668;37.858;2023-04-08T06:50:35;101010.09;;;4.89;52.60
34674;BME280;20879;55.668;37.858;2023-04-08T06:53:06;101008.75;;;5.02;52.51
34674;BME280;20879;55.668;37.858;2023-04-08T06:55:35;100996.97;;;5.11;52.85
34674;BME280;20879;55.668;37.858;2023-04-08T06:58:18;101001.63;;;5.24;52.47
34674;BME280;20879;55.668;37.858;2023-04-08T07:01:11;101001.94;;;5.35;51.93
34674;BME280;20879;55.668;37.858;2023-04-08T07:03:43;100996.72;;;5.32;52.26
34674;BME280;20879;55.668;37.858;2023-04-08T07:06:13;100994.56;;;5.49;52.04
34674;BME280;20879;55.668;37.858;2023-04-08T07:08:44;100996.78;;;5.67;51.34
34674;BME280;20879;55.668;37.858;2023-04-08T07:11:14;101000.34;;;5.73;51.03
34674;BME280;20879;55.668;37.858;2023-04-08T07:13:48;100992.66;;;5.75;50.64
34674;BME280;20879;55.668;37.858;2023-04-08T07:16:19;100990.03;;;5.72;50.93
34674;BME280;20879;55.668;37.858;2023-04-08T07:18:48;101000.44;;;5.78;51.54
34674;BME280;20879;55.668;37.858;2023-04-08T07:21:23;100997.41;;;5.93;51.45
34674;BME280;20879;55.668;37.858;2023-04-08T07:24:09;100997.72;;;6.05;50.27
34674;BME280;20879;55.668;37.858;2023-04-08T07:26:39;100985.13;;;6.16;50.50
34674;BME280;20879;55.668;37.858;2023-04-08T07:29:10;100990.69;;;6.35;50.35
34674;BME280;20879;55.668;37.858;2023-04-08T07:31:41;100991.81;;;6.46;50.52
34674;BME280;20879;55.668;37.858;2023-04-08T07:34:21;100970.50;;;6.52;49.64
34674;BME280;20879;55.668;37.858;2023-04-08T07:36:50;100993.94;;;6.65;49.91
34674;BME280;20879;55.668;37.858;2023-04-08T07:39:36;100979.47;;;6.71;49.28
34674;BME280;20879;55.668;37.858;2023-04-08T07:42:06;100987.97;;;6.68;49.63
34674;BME280;20879;55.668;37.858;2023-04-08T07:44:35;100982.75;;;6.63;48.99
34674;BME280;20879;55.668;37.858;2023-04-08T07:47:05;100987.38;;;6.80;49.27
34674;BME280;20879;55.668;37.858;2023-04-08T07:49:34;100991.91;;;6.92;49.36
34674;BME280;20879;55.668;37.858;2023-04-08T07:52:04;100989.59;;;7.06;48.98
34674;BME280;20879;55.668;37.858;2023-04-08T07:54:33;100981.94;;;7.09;48.84
34674;BME280;20879;55.668;37.858;2023-04-08T07:57:04;100986.50;;;7.24;48.52
34674;BME280;20879;55.668;37.858;2023-04-08T07:59:44;100986.72;;;7.36;48.27
34674;BME280;20879;55.668;37.858;2023-04-08T08:02:14;100977.56;;;7.52;48.04
34674;BME280;20879;55.668;37.858;2023-04-08T08:04:54;100978.66;;;7.65;47.70
34674;BME280;20879;55.668;37.858;2023-04-08T08:07:23;100979.75;;;7.79;47.45
34674;BME280;20879;55.668;37.858;2023-04-08T08:09:52;100974.75;;;7.90;47.44
34674;BME280;20879;55.668;37.858;2023-04-08T08:12:24;100975.72;;;7.95;47.14
34674;BME280;20879;55.668;37.858;2023-04-08T08:14:54;100973.31;;;8.08;47.39
34674;BME280;20879;55.668;37.858;2023-04-08T08:17:25;100961.25;;;8.08;46.58
34674;BME280;20879;55.668;37.858;2023-04-08T08:19:56;100977.69;;;8.13;46.36
34674;BME280;20879;55.668;37.858;2023-04-08T08:22:25;100962.97;;;8.06;46.56
34674;BME280;20879;55.668;37.858;2023-04-08T08:24:59;100964.69;;;8.05;46.79
34674;BME280;20879;55.668;37.858;2023-04-08T08:27:32;100969.09;;;8.13;46.80
34674;BME280;20879;55.668;37.858;2023-04-08T08:30:01;100956.16;;;8.10;46.45
34674;BME280;20879;55.668;37.858;2023-04-08T08:32:37;100938.00;;;8.05;46.55
34674;BME280;20879;55.668;37.858;2023-04-08T08:35:13;100923.53;;;8.13;46.59
34674;BME280;20879;55.668;37.858;2023-04-08T08:37:53;100947.28;;;8.52;45.55
34674;BME280;20879;55.668;37.858;2023-04-08T08:40:29;100861.38;;;7.98;45.95
34674;BME280;20879;55.668;37.858;2023-04-08T08:43:04;100734.25;;;7.39;45.29
34674;BME280;20879;55.668;37.858;2023-04-08T08:45:41;100952.88;;;8.86;45.17
34674;BME280;20879;55.668;37.858;2023-04-08T08:48:13;100886.53;;;8.82;44.96
34674;BME280;20879;55.668;37.858;2023-04-08T08:50:47;100917.06;;;9.18;43.83
34674;BME280;20879;55.668;37.858;2023-04-08T08:53:18;100942.34;;;9.52;43.03
34674;BME280;20879;55.668;37.858;2023-04-08T08:55:50;100906.06;;;9.42;41.98
34674;BME280;20879;55.668;37.858;2023-04-08T08:58:30;100939.94;;;9.76;41.52
34674;BME280;20879;55.668;37.858;2023-04-08T09:01:35;100921.94;;;9.90;40.00
34674;BME280;20879;55.668;37.858;2023-04-08T09:04:17;100913.91;;;9.52;40.98
34674;BME280;20879;55.668;37.858;2023-04-08T09:07:10;100923.56;;;9.76;41.15
34674;BME280;20879;55.668;37.858;2023-04-08T09:09:51;100890.69;;;9.59;40.88
34674;BME280;20879;55.668;37.858;2023-04-08T09:12:29;100899.34;;;9.66;40.88
34674;BME280;20879;55.668;37.858;2023-04-08T09:15:11;100935.88;;;10.11;40.98
34674;BME280;20879;55.668;37.858;2023-04-08T09:17:47;100906.56;;;10.13;40.78
34674;BME280;20879;55.668;37.858;2023-04-08T09:20:18;100929.16;;;10.39;39.69
34674;BME280;20879;55.668;37.858;2023-04-08T09:22:58;100935.25;;;10.43;40.48
34674;BME280;20879;55.668;37.858;2023-04-08T09:25:33;100931.69;;;10.33;39.32
34674;BME280;20879;55.668;37.858;2023-04-08T09:28:04;100934.25;;;10.24;38.43
34674;BME280;20879;55.668;37.858;2023-04-08T09:30:48;100935.09;;;10.27;38.41
34674;BME280;20879;55.668;37.858;2023-04-08T09:33:18;100940.34;;;10.34;38.47
34674;BME280;20879;55.668;37.858;2023-04-08T09:35:47;100934.16;;;10.14;39.47
34674;BME280;20879;55.668;37.858;2023-04-08T09:38:17;100909.94;;;10.00;39.82
34674;BME280;20879;55.668;37.858;2023-04-08T09:40:46;100922.06;;;10.07;39.81
34674;BME280;20879;55.668;37.858;2023-04-08T09:43:18;100929.06;;;10.24;39.92
34674;BME280;20879;55.668;37.858;2023-04-08T09:45:55;100923.03;;;10.26;39.85
34674;BME280;20879;55.668;37.858;2023-04-08T09:48:31;100920.53;;;10.34;39.75
34674;BME280;20879;55.668;37.858;2023-04-08T09:51:14;100921.41;;;10.44;39.87
34674;BME280;20879;55.668;37.858;2023-04-08T09:53:46;100919.63;;;10.34;39.04
34674;BME280;20879;55.668;37.858;2023-04-08T09:56:26;100889.31;;;10.15;39.83
34674;BME280;20879;55.668;37.858;2023-04-08T09:59:08;100883.34;;;10.26;39.09
34674;BME280;20879;55.668;37.858;2023-04-08T10:02:38;100906.78;;;10.54;39.92
34674;BME280;20879;55.668;37.858;2023-04-08T10:05:16;100906.88;;;10.71;40.24
34674;BME280;20879;55.668;37.858;2023-04-08T10:07:47;100905.16;;;10.80;40.05
34674;BME280;20879;55.668;37.858;2023-04-08T10:10:17;100886.16;;;10.75;40.16
34674;BME280;20879;55.668;37.858;2023-04-08T10:12:52;100899.09;;;10.81;39.74
34674;BME280;20879;55.668;37.858;2023-04-08T10:15:23;100897.41;;;10.83;39.05
34674;BME280;20879;55.668;37.858;2023-04-08T10:18:30;100909.53;;;10.92;37.79
34674;BME280;20879;55.668;37.858;2023-04-08T10:21:30;100880.97;;;10.88;38.61
34674;BME280;20879;55.668;37.858;2023-04-08T10:24:00;100899.16;;;10.94;37.91
34674;BME280;20879;55.668;37.858;2023-04-08T10:26:33;100900.84;;;10.89;37.44
34674;BME280;20879;55.668;37.858;2023-04-08T10:29:31;100899.16;;;10.92;36.30
34674;BME280;20879;55.668;37.858;2023-04-08T10:32:06;100892.22;;;10.83;36.78
34674;BME280;20879;55.668;37.858;2023-04-08T10:34:52;100895.69;;;10.90;36.24
34674;BME280;20879;55.668;37.858;2023-04-08T10:37:22;100899.16;;;11.00;36.83
34674;BME280;20879;55.668;37.858;2023-04-08T10:39:53;100892.25;;;11.07;37.19
34674;BME280;20879;55.668;37.858;2023-04-08T10:42:27;100887.94;;;11.13;37.07
34674;BME280;20879;55.668;37.858;2023-04-08T10:45:00;100885.34;;;11.13;37.53
34674;BME280;20879;55.668;37.858;2023-04-08T10:47:35;100896.56;;;11.09;38.11
34674;BME280;20879;55.668;37.858;2023-04-08T10:50:15;100887.06;;;10.99;38.04
34674;BME280;20879;55.668;37.858;2023-04-08T10:52:48;100880.13;;;10.92;38.08
34674;BME280;20879;55.668;37.858;2023-04-08T10:55:25;100878.38;;;10.72;37.05
34674;BME280;20879;55.668;37.858;2023-04-08T10:57:54;100872.34;;;10.79;38.02
34674;BME280;20879;55.668;37.858;2023-04-08T11:00:33;100874.09;;;10.90;37.17
34674;BME280;20879;55.668;37.858;2023-04-08T11:03:08;100875.84;;;10.97;37.27
34674;BME280;20879;55.668;37.858;2023-04-08T11:05:43;100868.91;;;11.02;37.33
34674;BME280;20879;55.668;37.858;2023-04-08T11:08:18;100863.75;;;11.08;37.43
34674;BME280;20879;55.668;37.858;2023-04-08T11:10:48;100867.19;;;11.01;38.05
34674;BME280;20879;55.668;37.858;2023-04-08T11:13:23;100859.44;;;11.07;38.44
34674;BME280;20879;55.668;37.858;2023-04-08T11:15:52;100854.25;;;11.10;38.86
34674;BME280;20879;55.668;37.858;2023-04-08T11:18:23;100843.88;;;11.13;38.69
34674;BME280;20879;55.668;37.858;2023-04-08T11:20:56;100854.25;;;11.27;38.28
34674;BME280;20879;55.668;37.858;2023-04-08T11:23:26;100858.59;;;11.17;38.29
34674;BME280;20879;55.668;37.858;2023-04-08T11:25:56;100858.56;;;11.24;37.81
34674;BME280;20879;55.668;37.858;2023-04-08T11:28:26;100843.00;;;11.30;37.74
34674;BME280;20879;55.668;37.858;2023-04-08T11:30:56;100857.72;;;11.35;37.40
34674;BME280;20879;55.668;37.858;2023-04-08T11:33:26;100834.41;;;11.22;37.26
34674;BME280;20879;55.668;37.858;2023-04-08T11:36:02;100856.84;;;11.29;37.86
34674;BME280;20879;55.668;37.858;2023-04-08T11:38:38;100848.19;;;11.27;38.33
34674;BME280;20879;55.668;37.858;2023-04-08T11:41:09;100843.00;;;11.31;38.66
34674;BME280;20879;55.668;37.858;2023-04-08T11:43:53;100843.88;;;11.41;39.36
34674;BME280;20879;55.668;37.858;2023-04-08T11:46:23;100827.47;;;11.31;39.45
34674;BME280;20879;55.668;37.858;2023-04-08T11:49:04;100837.81;;;11.36;39.68
34674;BME280;20879;55.668;37.858;2023-04-08T11:51:57;100843.88;;;11.24;40.10
34674;BME280;20879;55.668;37.858;2023-04-08T11:54:40;100823.13;;;11.19;39.93
34674;BME280;20879;55.668;37.858;2023-04-08T11:57:09;100836.13;;;11.35;39.81
34674;BME280;20879;55.668;37.858;2023-04-08T11:59:46;100830.91;;;11.21;40.02
34674;BME280;20879;55.668;37.858;2023-04-08T12:02:16;100836.09;;;11.23;40.18
34674;BME280;20879;55.668;37.858;2023-04-08T12:04:51;100821.41;;;11.14;39.84
34674;BME280;20879;55.668;37.858;2023-04-08T12:07:22;100811.91;;;10.83;39.81
34674;BME280;20879;55.668;37.858;2023-04-08T12:09:51;100830.03;;;10.97;40.30
34674;BME280;20879;55.668;37.858;2023-04-08T12:12:21;100834.38;;;11.12;39.84
34674;BME280;20879;55.668;37.858;2023-04-08T12:14:51;100826.63;;;11.25;39.74
34674;BME280;20879;55.668;37.858;2023-04-08T12:17:21;100824.00;;;11.37;39.97
34674;BME280;20879;55.668;37.858;2023-04-08T12:19:50;100818.81;;;11.37;39.41
34674;BME280;20879;55.668;37.858;2023-04-08T12:22:22;100822.28;;;11.33;39.56
34674;BME280;20879;55.668;37.858;2023-04-08T12:24:54;100798.97;;;11.19;39.73
34674;BME280;20879;55.668;37.858;2023-04-08T12:27:25;100799.81;;;11.26;39.67
34674;BME280;20879;55.668;37.858;2023-04-08T12:29:54;100817.09;;;11.28;39.17
34674;BME280;20879;55.668;37.858;2023-04-08T12:32:23;100812.78;;;11.15;38.76
34674;BME280;20879;55.668;37.858;2023-04-08T12:34:53;100777.34;;;11.01;39.37
34674;BME280;20879;55.668;37.858;2023-04-08T12:37:31;100802.41;;;11.16;39.36
34674;BME280;20879;55.668;37.858;2023-04-08T12:40:01;100805.84;;;11.34;39.63
34674;BME280;20879;55.668;37.858;2023-04-08T12:42:30;100799.81;;;11.35;39.25
34674;BME280;20879;55.668;37.858;2023-04-08T12:52:11;100795.47;;;11.37;39.52
34674;BME280;20879;55.668;37.858;2023-04-08T12:54:42;100792.88;;;11.37;39.67
34674;BME280;20879;55.668;37.858;2023-04-08T12:57:16;100798.06;;;11.43;39.93
34674;BME280;20879;55.668;37.858;2023-04-08T12:59:45;100798.06;;;11.56;39.74
34674;BME280;20879;55.668;37.858;2023-04-08T13:02:24;100792.00;;;11.63;39.32
34674;BME280;20879;55.668;37.858;2023-04-08T13:04:55;100780.69;;;11.76;39.17
34674;BME280;20879;55.668;37.858;2023-04-08T13:07:27;100785.00;;;11.74;38.42
34674;BME280;20879;55.668;37.858;2023-04-08T13:09:56;100779.00;;;11.66;38.84
34674;BME280;20879;55.668;37.858;2023-04-08T13:12:30;100775.53;;;11.64;38.48
34674;BME280;20879;55.668;37.858;2023-04-08T13:15:00;100775.50;;;11.76;38.84
34674;BME280;20879;55.668;37.858;2023-04-08T13:17:29;100781.53;;;11.89;38.81
34674;BME280;20879;55.668;37.858;2023-04-08T13:19:59;100768.56;;;11.94;38.18
34674;BME280;20879;55.668;37.858;2023-04-08T13:22:31;100755.59;;;11.86;37.45
34674;BME280;20879;55.668;37.858;2023-04-08T13:25:01;100763.41;;;11.75;36.77
34674;BME280;20879;55.668;37.858;2023-04-08T13:27:32;100762.50;;;11.84;36.79
34674;BME280;20879;55.668;37.858;2023-04-08T13:30:01;100760.81;;;11.72;36.90